sensor_id;sensor_type;location;lat;lon;timestamp;temperature;humidity
4584;DHT22;2304;47.606;12.186;2023-06-19T00:02:45;21.00;56.20
4584;DHT22;2304;47.606;12.186;2023-06-19T00:07:47;20.90;57.40
4584;DHT22;2304;47.606;12.186;2023-06-19T00:12:49;20.80;57.00
4584;DHT22;2304;47.606;12.186;2023-06-19T00:17:52;20.90;56.70
4584;DHT22;2304;47.606;12.186;2023-06-19T00:22:54;20.90;56.70
4584;DHT22;2304;47.606;12.186;2023-06-19T00:27:56;20.90;56.30
4584;DHT22;2304;47.606;12.186;2023-06-19T00:33:07;20.80;57.70
4584;DHT22;2304;47.606;12.186;2023-06-19T00:38:09;20.60;57.60
4584;DHT22;2304;47.606;12.186;2023-06-19T00:43:11;20.60;57.30
4584;DHT22;2304;47.606;12.186;2023-06-19T00:48:15;20.60;58.50
4584;DHT22;2304;47.606;12.186;2023-06-19T00:53:18;20.40;58.80
4584;DHT22;2304;47.606;12.186;2023-06-19T00:58:21;20.40;58.20
4584;DHT22;2304;47.606;12.186;2023-06-19T01:03:24;20.20;59.10
4584;DHT22;2304;47.606;12.186;2023-06-19T01:08:41;20.30;58.60
4584;DHT22;2304;47.606;12.186;2023-06-19T01:13:46;20.30;58.50
4584;DHT22;2304;47.606;12.186;2023-06-19T01:18:51;20.20;59.00
4584;DHT22;2304;47.606;12.186;2023-06-19T01:23:54;20.10;58.80
4584;DHT22;2304;47.606;12.186;2023-06-19T01:28:56;20.20;58.60
4584;DHT22;2304;47.606;12.186;2023-06-19T01:33:59;20.10;59.60
4584;DHT22;2304;47.606;12.186;2023-06-19T01:39:04;19.80;61.00
4584;DHT22;2304;47.606;12.186;2023-06-19T01:44:07;19.60;60.80
4584;DHT22;2304;47.606;12.186;2023-06-19T01:49:09;19.80;59.90
4584;DHT22;2304;47.606;12.186;2023-06-19T01:54:13;19.90;59.80
4584;DHT22;2304;47.606;12.186;2023-06-19T01:59:15;19.90;59.80
4584;DHT22;2304;47.606;12.186;2023-06-19T02:04:16;19.90;60.60
4584;DHT22;2304;47.606;12.186;2023-06-19T02:09:20;19.90;59.90
4584;DHT22;2304;47.606;12.186;2023-06-19T02:14:21;19.80;61.80
4584;DHT22;2304;47.606;12.186;2023-06-19T02:19:23;19.70;61.30
4584;DHT22;2304;47.606;12.186;2023-06-19T02:24:26;19.70;61.30
4584;DHT22;2304;47.606;12.186;2023-06-19T02:29:28;19.70;60.80
4584;DHT22;2304;47.606;12.186;2023-06-19T02:34:30;19.80;60.00
4584;DHT22;2304;47.606;12.186;2023-06-19T02:39:34;19.80;59.90
4584;DHT22;2304;47.606;12.186;2023-06-19T02:44:36;19.80;59.70
4584;DHT22;2304;47.606;12.186;2023-06-19T02:49:38;19.80;60.30
4584;DHT22;2304;47.606;12.186;2023-06-19T02:54:41;19.70;60.10
4584;DHT22;2304;47.606;12.186;2023-06-19T02:59:43;19.80;60.10
4584;DHT22;2304;47.606;12.186;2023-06-19T03:04:46;19.70;60.20
4584;DHT22;2304;47.606;12.186;2023-06-19T03:09:49;19.70;60.40
4584;DHT22;2304;47.606;12.186;2023-06-19T03:14:50;19.70;60.50
4584;DHT22;2304;47.606;12.186;2023-06-19T03:19:52;19.70;60.20
4584;DHT22;2304;47.606;12.186;2023-06-19T03:24:55;19.70;59.60
4584;DHT22;2304;47.606;12.186;2023-06-19T03:29:57;19.80;59.50
4584;DHT22;2304;47.606;12.186;2023-06-19T03:35:00;19.80;60.00
4584;DHT22;2304;47.606;12.186;2023-06-19T03:40:05;19.80;60.40
4584;DHT22;2304;47.606;12.186;2023-06-19T03:45:09;19.70;60.20
4584;DHT22;2304;47.606;12.186;2023-06-19T03:50:11;19.60;61.60
4584;DHT22;2304;47.606;12.186;2023-06-19T03:55:14;19.60;61.40
4584;DHT22;2304;47.606;12.186;2023-06-19T04:00:16;19.80;61.30
4584;DHT22;2304;47.606;12.186;2023-06-19T04:05:18;19.60;60.60
4584;DHT22;2304;47.606;12.186;2023-06-19T04:10:22;19.70;61.00
4584;DHT22;2304;47.606;12.186;2023-06-19T04:15:24;19.70;60.20
4584;DHT22;2304;47.606;12.186;2023-06-19T04:20:26;19.70;60.20
4584;DHT22;2304;47.606;12.186;2023-06-19T04:25:29;19.80;60.50
4584;DHT22;2304;47.606;12.186;2023-06-19T04:30:31;19.90;60.10
4584;DHT22;2304;47.606;12.186;2023-06-19T04:35:33;19.90;60.70
4584;DHT22;2304;47.606;12.186;2023-06-19T04:40:36;20.00;61.40
4584;DHT22;2304;47.606;12.186;2023-06-19T04:45:38;20.00;60.60
4584;DHT22;2304;47.606;12.186;2023-06-19T04:50:40;20.00;61.20
4584;DHT22;2304;47.606;12.186;2023-06-19T04:55:43;20.00;60.60
4584;DHT22;2304;47.606;12.186;2023-06-19T05:00:45;20.00;62.90
4584;DHT22;2304;47.606;12.186;2023-06-19T05:05:51;20.00;62.50
4584;DHT22;2304;47.606;12.186;2023-06-19T05:10:55;20.00;63.60
4584;DHT22;2304;47.606;12.186;2023-06-19T05:15:57;20.20;62.60
4584;DHT22;2304;47.606;12.186;2023-06-19T05:20:58;20.20;63.50
4584;DHT22;2304;47.606;12.186;2023-06-19T05:26:02;20.20;64.00
4584;DHT22;2304;47.606;12.186;2023-06-19T05:31:06;20.30;63.60
4584;DHT22;2304;47.606;12.186;2023-06-19T05:36:08;20.40;63.50
4584;DHT22;2304;47.606;12.186;2023-06-19T05:41:13;20.40;62.70
4584;DHT22;2304;47.606;12.186;2023-06-19T05:46:15;20.40;63.70
4584;DHT22;2304;47.606;12.186;2023-06-19T05:51:16;20.50;63.70
4584;DHT22;2304;47.606;12.186;2023-06-19T05:56:20;20.60;63.20
4584;DHT22;2304;47.606;12.186;2023-06-19T06:01:21;20.60;61.90
4584;DHT22;2304;47.606;12.186;2023-06-19T06:06:25;20.70;62.40
4584;DHT22;2304;47.606;12.186;2023-06-19T06:11:28;20.90;62.10
4584;DHT22;2304;47.606;12.186;2023-06-19T06:16:30;21.10;60.90
4584;DHT22;2304;47.606;12.186;2023-06-19T06:21:32;21.10;60.00
4584;DHT22;2304;47.606;12.186;2023-06-19T06:26:36;21.20;60.30
4584;DHT22;2304;47.606;12.186;2023-06-19T06:31:38;21.30;60.30
4584;DHT22;2304;47.606;12.186;2023-06-19T06:36:40;21.50;60.30
4584;DHT22;2304;47.606;12.186;2023-06-19T06:41:43;21.70;59.00
4584;DHT22;2304;47.606;12.186;2023-06-19T06:46:45;21.90;58.20
4584;DHT22;2304;47.606;12.186;2023-06-19T06:51:47;22.00;58.70
4584;DHT22;2304;47.606;12.186;2023-06-19T06:56:50;22.10;59.00
4584;DHT22;2304;47.606;12.186;2023-06-19T07:01:56;22.10;58.70
4584;DHT22;2304;47.606;12.186;2023-06-19T07:06:58;22.30;58.90
4584;DHT22;2304;47.606;12.186;2023-06-19T07:12:01;22.40;57.40
4584;DHT22;2304;47.606;12.186;2023-06-19T07:17:04;22.30;57.90
4584;DHT22;2304;47.606;12.186;2023-06-19T07:22:07;22.50;58.30
4584;DHT22;2304;47.606;12.186;2023-06-19T07:27:11;22.70;56.40
4584;DHT22;2304;47.606;12.186;2023-06-19T07:32:13;23.00;56.80
4584;DHT22;2304;47.606;12.186;2023-06-19T07:37:14;23.50;56.40
4584;DHT22;2304;47.606;12.186;2023-06-19T07:42:19;23.60;53.60
4584;DHT22;2304;47.606;12.186;2023-06-19T07:47:21;23.70;52.40
4584;DHT22;2304;47.606;12.186;2023-06-19T07:52:23;23.90;52.00
4584;DHT22;2304;47.606;12.186;2023-06-19T07:57:27;24.30;51.90
4584;DHT22;2304;47.606;12.186;2023-06-19T08:02:29;24.40;51.80
4584;DHT22;2304;47.606;12.186;2023-06-19T08:07:30;24.90;51.20
4584;DHT22;2304;47.606;12.186;2023-06-19T08:12:34;25.30;50.40
4584;DHT22;2304;47.606;12.186;2023-06-19T08:17:35;25.20;50.10
4584;DHT22;2304;47.606;12.186;2023-06-19T08:22:37;25.30;51.50
4584;DHT22;2304;47.606;12.186;2023-06-19T08:27:40;25.30;52.60
4584;DHT22;2304;47.606;12.186;2023-06-19T08:32:43;25.30;51.10
4584;DHT22;2304;47.606;12.186;2023-06-19T08:37:45;25.30;52.10
4584;DHT22;2304;47.606;12.186;2023-06-19T08:42:49;25.40;51.40
4584;DHT22;2304;47.606;12.186;2023-06-19T08:47:58;25.40;49.30
4584;DHT22;2304;47.606;12.186;2023-06-19T08:53:00;26.00;50.50
4584;DHT22;2304;47.606;12.186;2023-06-19T08:58:03;26.30;49.80
4584;DHT22;2304;47.606;12.186;2023-06-19T09:03:05;26.60;49.60
4584;DHT22;2304;47.606;12.186;2023-06-19T09:08:13;26.90;48.10
4584;DHT22;2304;47.606;12.186;2023-06-19T09:13:17;27.20;48.40
4584;DHT22;2304;47.606;12.186;2023-06-19T09:18:19;27.30;49.80
4584;DHT22;2304;47.606;12.186;2023-06-19T09:23:21;27.70;49.20
4584;DHT22;2304;47.606;12.186;2023-06-19T09:28:25;27.70;47.60
4584;DHT22;2304;47.606;12.186;2023-06-19T09:33:29;27.60;48.20
4584;DHT22;2304;47.606;12.186;2023-06-19T09:38:33;27.60;48.20
4584;DHT22;2304;47.606;12.186;2023-06-19T09:43:39;27.50;48.80
4584;DHT22;2304;47.606;12.186;2023-06-19T09:48:43;27.80;49.80
4584;DHT22;2304;47.606;12.186;2023-06-19T09:53:45;28.30;49.50
4584;DHT22;2304;47.606;12.186;2023-06-19T09:58:51;28.80;49.40
4584;DHT22;2304;47.606;12.186;2023-06-19T10:04:03;29.20;48.30
4584;DHT22;2304;47.606;12.186;2023-06-19T10:09:09;29.50;47.90
4584;DHT22;2304;47.606;12.186;2023-06-19T10:14:13;29.80;46.70
4584;DHT22;2304;47.606;12.186;2023-06-19T10:19:15;30.10;45.90
4584;DHT22;2304;47.606;12.186;2023-06-19T10:24:19;30.20;42.80
4584;DHT22;2304;47.606;12.186;2023-06-19T10:29:23;30.50;43.70
4584;DHT22;2304;47.606;12.186;2023-06-19T10:34:33;30.70;42.70
4584;DHT22;2304;47.606;12.186;2023-06-19T10:39:35;30.80;41.40
4584;DHT22;2304;47.606;12.186;2023-06-19T10:44:38;30.90;41.70
4584;DHT22;2304;47.606;12.186;2023-06-19T10:49:42;31.00;43.30
4584;DHT22;2304;47.606;12.186;2023-06-19T10:54:44;31.10;40.30
4584;DHT22;2304;47.606;12.186;2023-06-19T10:59:50;31.30;42.40
4584;DHT22;2304;47.606;12.186;2023-06-19T11:04:53;31.40;41.10
4584;DHT22;2304;47.606;12.186;2023-06-19T11:09:55;31.60;42.00
4584;DHT22;2304;47.606;12.186;2023-06-19T11:14:58;31.60;42.50
4584;DHT22;2304;47.606;12.186;2023-06-19T11:20:00;31.60;41.00
4584;DHT22;2304;47.606;12.186;2023-06-19T11:25:05;31.80;41.70
4584;DHT22;2304;47.606;12.186;2023-06-19T11:30:09;31.90;39.20
4584;DHT22;2304;47.606;12.186;2023-06-19T11:35:12;32.00;39.60
4584;DHT22;2304;47.606;12.186;2023-06-19T11:40:14;32.10;38.40
4584;DHT22;2304;47.606;12.186;2023-06-19T11:45:20;32.20;38.70
4584;DHT22;2304;47.606;12.186;2023-06-19T11:50:26;32.30;39.70
4584;DHT22;2304;47.606;12.186;2023-06-19T11:55:28;32.40;38.50
4584;DHT22;2304;47.606;12.186;2023-06-19T12:00:31;32.40;37.90
4584;DHT22;2304;47.606;12.186;2023-06-19T12:05:33;32.50;38.60
4584;DHT22;2304;47.606;12.186;2023-06-19T12:10:35;32.60;39.10
4584;DHT22;2304;47.606;12.186;2023-06-19T12:15:38;32.70;38.20
4584;DHT22;2304;47.606;12.186;2023-06-19T12:20:40;32.80;37.20
4584;DHT22;2304;47.606;12.186;2023-06-19T12:25:42;32.90;38.60
4584;DHT22;2304;47.606;12.186;2023-06-19T12:30:46;33.00;39.00
4584;DHT22;2304;47.606;12.186;2023-06-19T12:35:49;33.00;37.50
4584;DHT22;2304;47.606;12.186;2023-06-19T12:40:50;33.00;38.40
4584;DHT22;2304;47.606;12.186;2023-06-19T12:45:54;33.10;37.70
4584;DHT22;2304;47.606;12.186;2023-06-19T12:50:55;33.10;37.90
4584;DHT22;2304;47.606;12.186;2023-06-19T12:55:58;33.10;38.40
4584;DHT22;2304;47.606;12.186;2023-06-19T13:01:01;33.10;37.30
4584;DHT22;2304;47.606;12.186;2023-06-19T13:06:03;33.20;38.20
4584;DHT22;2304;47.606;12.186;2023-06-19T13:11:05;33.20;37.50
4584;DHT22;2304;47.606;12.186;2023-06-19T13:16:08;33.20;37.20
4584;DHT22;2304;47.606;12.186;2023-06-19T13:21:11;33.30;37.20
4584;DHT22;2304;47.606;12.186;2023-06-19T13:26:12;33.20;37.20
4584;DHT22;2304;47.606;12.186;2023-06-19T13:31:16;33.30;37.10
4584;DHT22;2304;47.606;12.186;2023-06-19T13:36:17;33.20;36.50
4584;DHT22;2304;47.606;12.186;2023-06-19T13:41:20;33.20;37.40
4584;DHT22;2304;47.606;12.186;2023-06-19T13:46:25;33.20;38.60
4584;DHT22;2304;47.606;12.186;2023-06-19T13:51:27;33.20;38.30
4584;DHT22;2304;47.606;12.186;2023-06-19T13:56:29;33.20;37.60
4584;DHT22;2304;47.606;12.186;2023-06-19T14:01:32;33.20;37.50
4584;DHT22;2304;47.606;12.186;2023-06-19T14:06:34;33.10;37.80
4584;DHT22;2304;47.606;12.186;2023-06-19T14:11:38;33.10;38.30
4584;DHT22;2304;47.606;12.186;2023-06-19T14:16:41;33.10;37.40
4584;DHT22;2304;47.606;12.186;2023-06-19T14:21:43;33.00;38.30
4584;DHT22;2304;47.606;12.186;2023-06-19T14:26:45;33.00;38.20
4584;DHT22;2304;47.606;12.186;2023-06-19T14:31:50;32.80;38.40
4584;DHT22;2304;47.606;12.186;2023-06-19T14:36:52;32.80;38.00
4584;DHT22;2304;47.606;12.186;2023-06-19T14:41:54;32.80;38.00
4584;DHT22;2304;47.606;12.186;2023-06-19T14:46:58;32.80;38.40
4584;DHT22;2304;47.606;12.186;2023-06-19T14:52:00;32.60;38.20
4584;DHT22;2304;47.606;12.186;2023-06-19T14:57:02;32.60;37.40
4584;DHT22;2304;47.606;12.186;2023-06-19T15:02:06;32.50;37.90
4584;DHT22;2304;47.606;12.186;2023-06-19T15:07:08;32.50;38.10
4584;DHT22;2304;47.606;12.186;2023-06-19T15:12:10;32.40;38.10
4584;DHT22;2304;47.606;12.186;2023-06-19T15:17:13;32.40;39.00
4584;DHT22;2304;47.606;12.186;2023-06-19T15:22:15;32.30;38.60
4584;DHT22;2304;47.606;12.186;2023-06-19T15:27:17;32.40;38.40
4584;DHT22;2304;47.606;12.186;2023-06-19T15:32:20;32.30;39.00
4584;DHT22;2304;47.606;12.186;2023-06-19T15:37:22;32.20;38.80
4584;DHT22;2304;47.606;12.186;2023-06-19T15:42:23;31.70;38.50
4584;DHT22;2304;47.606;12.186;2023-06-19T15:47:27;31.70;38.50
4584;DHT22;2304;47.606;12.186;2023-06-19T15:52:29;31.50;39.00
4584;DHT22;2304;47.606;12.186;2023-06-19T15:57:31;31.30;39.20
4584;DHT22;2304;47.606;12.186;2023-06-19T16:02:34;31.20;39.30
4584;DHT22;2304;47.606;12.186;2023-06-19T16:07:36;31.40;40.30
4584;DHT22;2304;47.606;12.186;2023-06-19T16:12:38;31.40;39.10
4584;DHT22;2304;47.606;12.186;2023-06-19T16:17:42;31.30;39.70
4584;DHT22;2304;47.606;12.186;2023-06-19T16:22:44;31.20;39.80
4584;DHT22;2304;47.606;12.186;2023-06-19T16:27:46;31.20;39.40
4584;DHT22;2304;47.606;12.186;2023-06-19T16:32:49;31.20;40.10
4584;DHT22;2304;47.606;12.186;2023-06-19T16:37:52;31.20;40.00
4584;DHT22;2304;47.606;12.186;2023-06-19T16:42:55;31.10;39.70
4584;DHT22;2304;47.606;12.186;2023-06-19T16:48:00;30.90;39.50
4584;DHT22;2304;47.606;12.186;2023-06-19T16:53:01;30.70;39.60
4584;DHT22;2304;47.606;12.186;2023-06-19T16:58:06;30.50;40.10
4584;DHT22;2304;47.606;12.186;2023-06-19T17:03:09;30.40;39.90
4584;DHT22;2304;47.606;12.186;2023-06-19T17:08:13;30.30;39.80
4584;DHT22;2304;47.606;12.186;2023-06-19T17:13:15;30.20;40.10
4584;DHT22;2304;47.606;12.186;2023-06-19T17:18:18;30.20;40.90
4584;DHT22;2304;47.606;12.186;2023-06-19T17:23:20;30.10;41.60
4584;DHT22;2304;47.606;12.186;2023-06-19T17:28:21;30.00;41.70
4584;DHT22;2304;47.606;12.186;2023-06-19T17:33:25;29.80;42.20
4584;DHT22;2304;47.606;12.186;2023-06-19T17:38:27;29.70;44.00
4584;DHT22;2304;47.606;12.186;2023-06-19T17:43:28;29.50;43.90
4584;DHT22;2304;47.606;12.186;2023-06-19T17:48:32;29.40;44.30
4584;DHT22;2304;47.606;12.186;2023-06-19T17:53:33;29.20;44.30
4584;DHT22;2304;47.606;12.186;2023-06-19T17:58:35;29.10;44.10
4584;DHT22;2304;47.606;12.186;2023-06-19T18:03:39;29.00;44.20
4584;DHT22;2304;47.606;12.186;2023-06-19T18:08:40;28.80;45.20
4584;DHT22;2304;47.606;12.186;2023-06-19T18:13:42;28.70;44.10
4584;DHT22;2304;47.606;12.186;2023-06-19T18:18:45;28.70;43.00
4584;DHT22;2304;47.606;12.186;2023-06-19T18:23:47;28.30;41.70
4584;DHT22;2304;47.606;12.186;2023-06-19T18:28:49;28.20;42.00
4584;DHT22;2304;47.606;12.186;2023-06-19T18:33:53;28.10;44.30
4584;DHT22;2304;47.606;12.186;2023-06-19T18:38:55;27.50;47.50
4584;DHT22;2304;47.606;12.186;2023-06-19T18:43:57;27.10;49.30
4584;DHT22;2304;47.606;12.186;2023-06-19T18:49:00;26.80;48.40
4584;DHT22;2304;47.606;12.186;2023-06-19T18:54:03;26.60;50.00
4584;DHT22;2304;47.606;12.186;2023-06-19T18:59:04;26.40;51.90
4584;DHT22;2304;47.606;12.186;2023-06-19T19:04:08;26.00;52.80
4584;DHT22;2304;47.606;12.186;2023-06-19T19:09:10;25.90;53.70
4584;DHT22;2304;47.606;12.186;2023-06-19T19:14:11;25.50;55.60
4584;DHT22;2304;47.606;12.186;2023-06-19T19:19:15;25.40;55.50
4584;DHT22;2304;47.606;12.186;2023-06-19T19:24:16;25.40;55.80
4584;DHT22;2304;47.606;12.186;2023-06-19T19:29:18;25.40;56.30
4584;DHT22;2304;47.606;12.186;2023-06-19T19:34:21;25.20;57.20
4584;DHT22;2304;47.606;12.186;2023-06-19T19:39:24;25.10;57.10
4584;DHT22;2304;47.606;12.186;2023-06-19T19:44:26;25.00;56.60
4584;DHT22;2304;47.606;12.186;2023-06-19T19:49:29;24.80;57.50
4584;DHT22;2304;47.606;12.186;2023-06-19T19:54:31;24.80;56.40
4584;DHT22;2304;47.606;12.186;2023-06-19T19:59:33;24.80;56.50
4584;DHT22;2304;47.606;12.186;2023-06-19T20:04:36;24.70;57.60
4584;DHT22;2304;47.606;12.186;2023-06-19T20:09:38;24.70;56.50
4584;DHT22;2304;47.606;12.186;2023-06-19T20:14:41;24.60;57.00
4584;DHT22;2304;47.606;12.186;2023-06-19T20:19:44;24.60;58.40
4584;DHT22;2304;47.606;12.186;2023-06-19T20:24:46;24.40;58.80
4584;DHT22;2304;47.606;12.186;2023-06-19T20:29:48;24.50;59.30
4584;DHT22;2304;47.606;12.186;2023-06-19T20:34:51;24.40;59.30
4584;DHT22;2304;47.606;12.186;2023-06-19T20:39:53;24.50;59.40
4584;DHT22;2304;47.606;12.186;2023-06-19T20:44:55;24.40;59.00
4584;DHT22;2304;47.606;12.186;2023-06-19T20:49:58;24.30;58.80
4584;DHT22;2304;47.606;12.186;2023-06-19T20:55:00;24.10;57.70
4584;DHT22;2304;47.606;12.186;2023-06-19T21:00:02;23.90;60.80
4584;DHT22;2304;47.606;12.186;2023-06-19T21:05:13;23.90;63.10
4584;DHT22;2304;47.606;12.186;2023-06-19T21:10:16;23.80;63.90
4584;DHT22;2304;47.606;12.186;2023-06-19T21:15:17;23.70;64.60
4584;DHT22;2304;47.606;12.186;2023-06-19T21:20:20;23.70;63.50
4584;DHT22;2304;47.606;12.186;2023-06-19T21:25:22;23.50;63.00
4584;DHT22;2304;47.606;12.186;2023-06-19T21:30:24;23.50;63.10
4584;DHT22;2304;47.606;12.186;2023-06-19T21:35:27;23.50;63.30
4584;DHT22;2304;47.606;12.186;2023-06-19T21:40:29;23.40;63.20
4584;DHT22;2304;47.606;12.186;2023-06-19T21:45:31;23.40;62.60
4584;DHT22;2304;47.606;12.186;2023-06-19T21:50:34;23.40;62.10
4584;DHT22;2304;47.606;12.186;2023-06-19T21:55:36;23.40;62.70
4584;DHT22;2304;47.606;12.186;2023-06-19T22:00:38;23.40;63.40
4584;DHT22;2304;47.606;12.186;2023-06-19T22:05:41;23.30;64.20
4584;DHT22;2304;47.606;12.186;2023-06-19T22:10:43;23.20;65.10
4584;DHT22;2304;47.606;12.186;2023-06-19T22:15:44;23.10;65.30
4584;DHT22;2304;47.606;12.186;2023-06-19T22:20:48;23.00;65.70
4584;DHT22;2304;47.606;12.186;2023-06-19T22:25:49;23.00;66.00
4584;DHT22;2304;47.606;12.186;2023-06-19T22:30:51;22.80;67.20
4584;DHT22;2304;47.606;12.186;2023-06-19T22:35:54;22.70;67.90
4584;DHT22;2304;47.606;12.186;2023-06-19T22:40:56;22.60;68.40
4584;DHT22;2304;47.606;12.186;2023-06-19T22:45:58;22.60;68.80
4584;DHT22;2304;47.606;12.186;2023-06-19T22:51:01;22.50;69.50
4584;DHT22;2304;47.606;12.186;2023-06-19T22:56:03;22.50;70.30
4584;DHT22;2304;47.606;12.186;2023-06-19T23:01:05;22.30;71.90
4584;DHT22;2304;47.606;12.186;2023-06-19T23:06:10;22.20;71.20
4584;DHT22;2304;47.606;12.186;2023-06-19T23:11:12;22.20;71.30
4584;DHT22;2304;47.606;12.186;2023-06-19T23:16:13;22.20;71.10
4584;DHT22;2304;47.606;12.186;2023-06-19T23:21:16;22.20;70.70
4584;DHT22;2304;47.606;12.186;2023-06-19T23:26:18;22.20;70.20
4584;DHT22;2304;47.606;12.186;2023-06-19T23:31:24;22.20;69.90
4584;DHT22;2304;47.606;12.186;2023-06-19T23:36:27;22.10;69.90
4584;DHT22;2304;47.606;12.186;2023-06-19T23:41:29;22.10;69.90
4584;DHT22;2304;47.606;12.186;2023-06-19T23:46:31;22.10;69.80
4584;DHT22;2304;47.606;12.186;2023-06-19T23:51:35;22.10;69.30
4584;DHT22;2304;47.606;12.186;2023-06-19T23:56:36;22.20;68.80
